Massey, Canada
Current Conditions -  °F | °C
As of 12:45 AM on Thursday 18 Dec 2014 (Local Time) from CYZE Reporting Station
Overcast Overcast  
Wind Chill:   Ceiling: 5500
Heat Index: 21°   Visibility: 9mi
Dew Point: 16°   Wind: 16mph
Humidity: 80%   Direction: 20°NNE
Pressure: 30.07"   Gusts: 22mph
Location:  46.21°N, 82.08°W
Report Text: CYZE 180545Z AUTO 02014G19KT 9SM SCT017 OVC055 M06/M09 A3007 RMK ICG SLP194
Loading
Personal Weather Stations






























Interactive Weather Map New forecast layout! Learn more

10-Day Weather Forecast

Advertisements
Track Severe Weather on mobile